sensor_id;sensor_type;location;lat;lon;timestamp;pressure;altitude;pressure_sealevel;temperature;humidity
76132;BME280;64877;50.994;13.650;2023-12-20T00:01:03;99222.25;;;7.64;100.00
76132;BME280;64877;50.994;13.650;2023-12-20T00:03:28;99223.22;;;7.50;100.00
76132;BME280;64877;50.994;13.650;2023-12-20T00:05:53;99221.84;;;7.45;100.00
76132;BME280;64877;50.994;13.650;2023-12-20T00:08:19;99230.53;;;7.61;99.64
76132;BME280;64877;50.994;13.650;2023-12-20T00:10:44;99225.06;;;7.50;100.00
76132;BME280;64877;50.994;13.650;2023-12-20T00:13:10;99225.84;;;7.39;100.00
76132;BME280;64877;50.994;13.650;2023-12-20T00:15:36;99211.44;;;7.40;100.00
76132;BME280;64877;50.994;13.650;2023-12-20T00:18:01;99213.19;;;7.41;100.00
76132;BME280;64877;50.994;13.650;2023-12-20T00:20:27;99201.84;;;7.62;99.71
76132;BME280;64877;50.994;13.650;2023-12-20T00:22:55;99207.22;;;7.62;100.00
76132;BME280;64877;50.994;13.650;2023-12-20T00:25:21;99200.34;;;7.58;98.94
76132;BME280;64877;50.994;13.650;2023-12-20T00:27:47;99203.88;;;7.58;99.70
76132;BME280;64877;50.994;13.650;2023-12-20T00:30:12;99195.63;;;7.48;99.30
76132;BME280;64877;50.994;13.650;2023-12-20T00:32:38;99207.81;;;7.41;98.91
76132;BME280;64877;50.994;13.650;2023-12-20T00:35:03;99203.91;;;7.45;99.48
76132;BME280;64877;50.994;13.650;2023-12-20T00:37:29;99196.81;;;7.44;98.78
76132;BME280;64877;50.994;13.650;2023-12-20T00:39:54;99206.50;;;7.34;99.43
76132;BME280;64877;50.994;13.650;2023-12-20T00:42:20;99203.75;;;7.23;100.00
76132;BME280;64877;50.994;13.650;2023-12-20T00:44:45;99194.25;;;7.30;99.84
76132;BME280;64877;50.994;13.650;2023-12-20T00:47:11;99200.69;;;7.40;98.38
76132;BME280;64877;50.994;13.650;2023-12-20T00:49:36;99190.44;;;7.71;98.76
76132;BME280;64877;50.994;13.650;2023-12-20T00:52:01;99188.16;;;7.65;96.95
76132;BME280;64877;50.994;13.650;2023-12-20T00:54:27;99177.53;;;7.63;95.82
76132;BME280;64877;50.994;13.650;2023-12-20T00:56:52;99184.09;;;7.59;95.75
76132;BME280;64877;50.994;13.650;2023-12-20T00:59:17;99186.84;;;7.34;95.54
76132;BME280;64877;50.994;13.650;2023-12-20T01:01:43;99178.06;;;7.32;96.71
76132;BME280;64877;50.994;13.650;2023-12-20T01:04:09;99178.16;;;7.30;97.83
76132;BME280;64877;50.994;13.650;2023-12-20T01:06:35;99176.00;;;7.35;97.46
76132;BME280;64877;50.994;13.650;2023-12-20T01:09:00;99177.88;;;7.22;98.17
76132;BME280;64877;50.994;13.650;2023-12-20T01:11:26;99182.38;;;7.09;98.41
76132;BME280;64877;50.994;13.650;2023-12-20T01:13:51;99175.81;;;7.13;98.72
76132;BME280;64877;50.994;13.650;2023-12-20T01:16:16;99162.06;;;7.05;100.00
76132;BME280;64877;50.994;13.650;2023-12-20T01:18:42;99159.47;;;7.16;98.74
76132;BME280;64877;50.994;13.650;2023-12-20T01:21:07;99163.47;;;7.10;97.45
76132;BME280;64877;50.994;13.650;2023-12-20T01:23:32;99156.50;;;7.08;98.79
76132;BME280;64877;50.994;13.650;2023-12-20T01:25:58;99157.47;;;7.07;99.96
76132;BME280;64877;50.994;13.650;2023-12-20T01:28:25;99153.28;;;7.03;99.73
76132;BME280;64877;50.994;13.650;2023-12-20T01:30:50;99154.75;;;7.19;99.54
76132;BME280;64877;50.994;13.650;2023-12-20T01:33:16;99151.75;;;7.24;98.43
76132;BME280;64877;50.994;13.650;2023-12-20T01:35:41;99155.28;;;7.24;97.04
76132;BME280;64877;50.994;13.650;2023-12-20T01:38:06;99144.06;;;7.07;97.88
76132;BME280;64877;50.994;13.650;2023-12-20T01:40:32;99156.41;;;6.96;99.05
76132;BME280;64877;50.994;13.650;2023-12-20T01:43:08;99145.97;;;7.05;98.63
76132;BME280;64877;50.994;13.650;2023-12-20T01:45:34;99145.78;;;6.82;98.69
76132;BME280;64877;50.994;13.650;2023-12-20T01:48:00;99139.94;;;7.01;98.47
76132;BME280;64877;50.994;13.650;2023-12-20T01:50:27;99149.69;;;7.28;98.05
76132;BME280;64877;50.994;13.650;2023-12-20T01:52:55;99143.53;;;7.02;97.99
76132;BME280;64877;50.994;13.650;2023-12-20T01:55:23;99143.38;;;7.16;97.15
76132;BME280;64877;50.994;13.650;2023-12-20T01:57:49;99147.91;;;7.03;98.49
76132;BME280;64877;50.994;13.650;2023-12-20T02:00:14;99142.56;;;6.77;98.30
76132;BME280;64877;50.994;13.650;2023-12-20T02:02:40;99139.91;;;6.77;98.83
76132;BME280;64877;50.994;13.650;2023-12-20T02:05:06;99143.00;;;6.84;99.56
76132;BME280;64877;50.994;13.650;2023-12-20T02:07:32;99130.44;;;6.71;100.00
76132;BME280;64877;50.994;13.650;2023-12-20T02:09:59;99124.31;;;6.82;99.96
76132;BME280;64877;50.994;13.650;2023-12-20T02:12:25;99127.53;;;6.87;99.21
76132;BME280;64877;50.994;13.650;2023-12-20T02:14:50;99128.50;;;6.73;99.78
76132;BME280;64877;50.994;13.650;2023-12-20T02:17:16;99129.47;;;6.85;98.56
76132;BME280;64877;50.994;13.650;2023-12-20T02:19:43;99117.78;;;6.73;100.00
76132;BME280;64877;50.994;13.650;2023-12-20T02:22:11;99126.88;;;6.71;99.77
76132;BME280;64877;50.994;13.650;2023-12-20T02:24:37;99119.81;;;6.83;99.75
76132;BME280;64877;50.994;13.650;2023-12-20T02:27:03;99128.28;;;6.64;100.00
76132;BME280;64877;50.994;13.650;2023-12-20T02:29:30;99115.84;;;6.63;99.36
76132;BME280;64877;50.994;13.650;2023-12-20T02:31:56;99124.56;;;6.66;99.35
76132;BME280;64877;50.994;13.650;2023-12-20T02:34:21;99118.31;;;6.66;99.13
76132;BME280;64877;50.994;13.650;2023-12-20T02:36:47;99111.78;;;6.57;99.80
76132;BME280;64877;50.994;13.650;2023-12-20T02:39:12;99110.94;;;6.57;100.00
76132;BME280;64877;50.994;13.650;2023-12-20T02:41:38;99112.28;;;6.75;98.68
76132;BME280;64877;50.994;13.650;2023-12-20T02:44:03;99111.66;;;6.46;99.36
76132;BME280;64877;50.994;13.650;2023-12-20T02:46:29;99113.59;;;6.57;98.27
76132;BME280;64877;50.994;13.650;2023-12-20T02:48:54;99108.88;;;6.47;99.77
76132;BME280;64877;50.994;13.650;2023-12-20T02:51:20;99103.81;;;6.56;99.82
76132;BME280;64877;50.994;13.650;2023-12-20T02:53:45;99116.50;;;6.54;99.61
76132;BME280;64877;50.994;13.650;2023-12-20T02:56:10;99110.16;;;6.55;100.00
76132;BME280;64877;50.994;13.650;2023-12-20T02:58:36;99118.63;;;6.48;100.00
76132;BME280;64877;50.994;13.650;2023-12-20T03:01:01;99110.94;;;6.57;100.00
76132;BME280;64877;50.994;13.650;2023-12-20T03:03:27;99118.31;;;6.53;100.00
76132;BME280;64877;50.994;13.650;2023-12-20T03:05:52;99110.69;;;6.60;100.00
76132;BME280;64877;50.994;13.650;2023-12-20T03:08:18;99107.47;;;6.55;100.00
76132;BME280;64877;50.994;13.650;2023-12-20T03:10:43;99096.44;;;6.72;98.66
76132;BME280;64877;50.994;13.650;2023-12-20T03:13:09;99096.31;;;6.61;99.13
76132;BME280;64877;50.994;13.650;2023-12-20T03:15:34;99104.38;;;6.48;99.02
76132;BME280;64877;50.994;13.650;2023-12-20T03:17:59;99099.75;;;6.50;99.23
76132;BME280;64877;50.994;13.650;2023-12-20T03:20:25;99100.84;;;6.47;99.77
76132;BME280;64877;50.994;13.650;2023-12-20T03:22:53;99100.94;;;6.59;100.00
76132;BME280;64877;50.994;13.650;2023-12-20T03:25:19;99087.63;;;6.70;98.60
76132;BME280;64877;50.994;13.650;2023-12-20T03:27:44;99089.09;;;6.61;98.45
76132;BME280;64877;50.994;13.650;2023-12-20T03:30:10;99082.16;;;6.59;99.22
76132;BME280;64877;50.994;13.650;2023-12-20T03:32:38;99080.66;;;6.55;100.00
76132;BME280;64877;50.994;13.650;2023-12-20T03:35:03;99083.34;;;6.67;99.32
76132;BME280;64877;50.994;13.650;2023-12-20T03:37:29;99075.72;;;6.48;100.00
76132;BME280;64877;50.994;13.650;2023-12-20T03:39:54;99074.00;;;6.47;100.00
76132;BME280;64877;50.994;13.650;2023-12-20T03:42:20;99075.25;;;6.80;100.00
76132;BME280;64877;50.994;13.650;2023-12-20T03:44:45;99086.84;;;6.93;100.00
76132;BME280;64877;50.994;13.650;2023-12-20T03:47:10;99069.81;;;7.06;100.00
76132;BME280;64877;50.994;13.650;2023-12-20T03:49:36;99076.94;;;7.07;97.81
76132;BME280;64877;50.994;13.650;2023-12-20T03:52:04;99077.00;;;7.18;100.00
76132;BME280;64877;50.994;13.650;2023-12-20T03:54:30;99086.31;;;6.88;98.64
76132;BME280;64877;50.994;13.650;2023-12-20T03:56:55;99076.22;;;6.79;98.34
76132;BME280;64877;50.994;13.650;2023-12-20T03:59:22;99080.34;;;6.72;99.57
76132;BME280;64877;50.994;13.650;2023-12-20T04:01:47;99087.72;;;6.68;99.77
76132;BME280;64877;50.994;13.650;2023-12-20T04:04:13;99090.63;;;6.65;99.84
76132;BME280;64877;50.994;13.650;2023-12-20T04:06:39;99080.97;;;6.63;99.67
76132;BME280;64877;50.994;13.650;2023-12-20T04:09:05;99084.19;;;6.68;100.00
76132;BME280;64877;50.994;13.650;2023-12-20T04:11:30;99076.03;;;6.44;100.00
76132;BME280;64877;50.994;13.650;2023-12-20T04:13:55;99075.53;;;6.52;100.00
76132;BME280;64877;50.994;13.650;2023-12-20T04:16:21;99084.31;;;6.54;100.00
76132;BME280;64877;50.994;13.650;2023-12-20T04:18:46;99081.94;;;6.62;100.00
76132;BME280;64877;50.994;13.650;2023-12-20T04:21:12;99085.91;;;6.56;100.00
76132;BME280;64877;50.994;13.650;2023-12-20T04:23:37;99079.25;;;6.74;100.00
76132;BME280;64877;50.994;13.650;2023-12-20T04:26:03;99083.09;;;6.70;100.00
76132;BME280;64877;50.994;13.650;2023-12-20T04:28:28;99081.16;;;6.85;100.00
76132;BME280;64877;50.994;13.650;2023-12-20T04:30:56;99079.97;;;6.89;100.00
76132;BME280;64877;50.994;13.650;2023-12-20T04:33:22;99081.81;;;6.76;100.00
76132;BME280;64877;50.994;13.650;2023-12-20T04:35:48;99084.19;;;6.68;100.00
76132;BME280;64877;50.994;13.650;2023-12-20T04:38:13;99078.19;;;6.77;100.00
76132;BME280;64877;50.994;13.650;2023-12-20T04:40:39;99076.88;;;6.70;100.00
76132;BME280;64877;50.994;13.650;2023-12-20T04:43:06;99077.84;;;6.69;100.00
76132;BME280;64877;50.994;13.650;2023-12-20T04:45:32;99082.88;;;6.86;100.00
76132;BME280;64877;50.994;13.650;2023-12-20T04:47:57;99077.31;;;6.77;100.00
76132;BME280;64877;50.994;13.650;2023-12-20T04:50:23;99079.44;;;6.84;100.00
76132;BME280;64877;50.994;13.650;2023-12-20T04:52:48;99086.75;;;6.69;100.00
76132;BME280;64877;50.994;13.650;2023-12-20T04:55:14;99085.03;;;6.68;100.00
76132;BME280;64877;50.994;13.650;2023-12-20T04:57:39;99092.66;;;6.74;100.00
76132;BME280;64877;50.994;13.650;2023-12-20T05:00:05;99090.63;;;6.65;100.00
76132;BME280;64877;50.994;13.650;2023-12-20T05:02:38;99087.00;;;6.66;100.00
76132;BME280;64877;50.994;13.650;2023-12-20T05:05:03;99091.28;;;6.69;100.00
76132;BME280;64877;50.994;13.650;2023-12-20T05:07:29;99088.47;;;6.83;100.00
76132;BME280;64877;50.994;13.650;2023-12-20T05:09:54;99092.53;;;6.89;100.00
76132;BME280;64877;50.994;13.650;2023-12-20T05:12:19;99085.34;;;6.89;100.00
76132;BME280;64877;50.994;13.650;2023-12-20T05:14:46;99098.13;;;6.73;100.00
76132;BME280;64877;50.994;13.650;2023-12-20T05:17:11;99092.88;;;6.71;100.00
76132;BME280;64877;50.994;13.650;2023-12-20T05:19:37;99095.66;;;6.83;100.00
76132;BME280;64877;50.994;13.650;2023-12-20T05:22:02;99095.13;;;6.78;100.00
76132;BME280;64877;50.994;13.650;2023-12-20T05:24:28;99112.41;;;6.86;100.00
76132;BME280;64877;50.994;13.650;2023-12-20T05:26:53;99112.09;;;6.78;100.00
76132;BME280;64877;50.994;13.650;2023-12-20T05:29:19;99109.16;;;6.81;100.00
76132;BME280;64877;50.994;13.650;2023-12-20T05:31:44;99108.50;;;6.90;100.00
76132;BME280;64877;50.994;13.650;2023-12-20T05:34:09;99111.66;;;6.84;100.00
76132;BME280;64877;50.994;13.650;2023-12-20T05:36:36;99109.41;;;6.78;100.00
76132;BME280;64877;50.994;13.650;2023-12-20T05:39:01;99109.00;;;6.71;100.00
76132;BME280;64877;50.994;13.650;2023-12-20T05:41:27;99107.03;;;6.86;100.00
76132;BME280;64877;50.994;13.650;2023-12-20T05:43:52;99106.78;;;7.02;100.00
76132;BME280;64877;50.994;13.650;2023-12-20T05:46:17;99116.56;;;6.90;100.00
76132;BME280;64877;50.994;13.650;2023-12-20T05:48:43;99113.16;;;6.88;100.00
76132;BME280;64877;50.994;13.650;2023-12-20T05:51:11;99110.91;;;6.82;100.00
76132;BME280;64877;50.994;13.650;2023-12-20T05:53:38;99120.00;;;6.92;100.00
76132;BME280;64877;50.994;13.650;2023-12-20T05:56:04;99115.84;;;6.88;100.00
76132;BME280;64877;50.994;13.650;2023-12-20T05:58:32;99121.19;;;6.88;100.00
76132;BME280;64877;50.994;13.650;2023-12-20T06:00:58;99123.34;;;6.83;100.00
76132;BME280;64877;50.994;13.650;2023-12-20T06:03:26;99123.03;;;6.75;100.00
76132;BME280;64877;50.994;13.650;2023-12-20T06:05:52;99140.53;;;6.68;100.00
76132;BME280;64877;50.994;13.650;2023-12-20T06:08:18;99136.56;;;6.73;100.00
76132;BME280;64877;50.994;13.650;2023-12-20T06:10:43;99141.50;;;6.67;100.00
76132;BME280;64877;50.994;13.650;2023-12-20T06:13:10;99131.19;;;6.73;100.00
76132;BME280;64877;50.994;13.650;2023-12-20T06:15:37;99133.66;;;6.77;100.00
76132;BME280;64877;50.994;13.650;2023-12-20T06:18:03;99131.72;;;6.79;100.00
76132;BME280;64877;50.994;13.650;2023-12-20T06:20:29;99141.72;;;6.77;100.00
76132;BME280;64877;50.994;13.650;2023-12-20T06:22:54;99141.19;;;6.71;100.00
76132;BME280;64877;50.994;13.650;2023-12-20T06:25:20;99140.63;;;6.79;100.00
76132;BME280;64877;50.994;13.650;2023-12-20T06:27:46;99133.44;;;6.80;100.00
76132;BME280;64877;50.994;13.650;2023-12-20T06:30:12;99135.06;;;6.82;100.00
76132;BME280;64877;50.994;13.650;2023-12-20T06:32:38;99138.38;;;6.73;100.00
76132;BME280;64877;50.994;13.650;2023-12-20T06:35:05;99143.63;;;6.74;100.00
76132;BME280;64877;50.994;13.650;2023-12-20T06:37:31;99140.63;;;6.79;100.00
76132;BME280;64877;50.994;13.650;2023-12-20T06:39:57;99154.03;;;6.79;100.00
76132;BME280;64877;50.994;13.650;2023-12-20T06:42:23;99162.75;;;6.83;100.00
76132;BME280;64877;50.994;13.650;2023-12-20T06:44:49;99169.94;;;6.82;100.00
76132;BME280;64877;50.994;13.650;2023-12-20T06:47:15;99156.28;;;6.85;100.00
76132;BME280;64877;50.994;13.650;2023-12-20T06:49:41;99171.34;;;6.88;100.00
76132;BME280;64877;50.994;13.650;2023-12-20T06:52:07;99182.06;;;6.88;100.00
76132;BME280;64877;50.994;13.650;2023-12-20T06:54:33;99180.78;;;6.93;100.00
76132;BME280;64877;50.994;13.650;2023-12-20T06:57:00;99177.13;;;6.94;100.00
76132;BME280;64877;50.994;13.650;2023-12-20T06:59:26;99178.28;;;7.16;100.00
76132;BME280;64877;50.994;13.650;2023-12-20T07:01:51;99188.03;;;7.30;100.00
76132;BME280;64877;50.994;13.650;2023-12-20T07:04:17;99193.16;;;7.45;100.00
76132;BME280;64877;50.994;13.650;2023-12-20T07:06:48;99187.56;;;7.48;100.00
76132;BME280;64877;50.994;13.650;2023-12-20T07:09:14;99193.84;;;7.36;100.00
76132;BME280;64877;50.994;13.650;2023-12-20T07:11:39;99192.34;;;7.32;100.00
76132;BME280;64877;50.994;13.650;2023-12-20T07:14:05;99198.03;;;7.15;100.00
76132;BME280;64877;50.994;13.650;2023-12-20T07:16:31;99197.06;;;7.16;100.00
76132;BME280;64877;50.994;13.650;2023-12-20T07:18:56;99189.38;;;7.11;100.00
76132;BME280;64877;50.994;13.650;2023-12-20T07:21:22;99183.22;;;7.09;100.00
76132;BME280;64877;50.994;13.650;2023-12-20T07:23:48;99195.16;;;7.18;100.00
76132;BME280;64877;50.994;13.650;2023-12-20T07:26:13;99195.16;;;7.05;100.00
76132;BME280;64877;50.994;13.650;2023-12-20T07:28:38;99206.31;;;6.99;100.00
76132;BME280;64877;50.994;13.650;2023-12-20T07:31:04;99204.50;;;6.99;100.00
76132;BME280;64877;50.994;13.650;2023-12-20T07:33:29;99214.50;;;6.97;100.00
76132;BME280;64877;50.994;13.650;2023-12-20T07:35:55;99206.44;;;6.97;100.00
76132;BME280;64877;50.994;13.650;2023-12-20T07:38:20;99201.28;;;6.94;100.00
76132;BME280;64877;50.994;13.650;2023-12-20T07:40:46;99199.66;;;7.17;100.00
76132;BME280;64877;50.994;13.650;2023-12-20T07:43:11;99197.72;;;7.19;100.00
76132;BME280;64877;50.994;13.650;2023-12-20T07:45:36;99181.63;;;7.07;100.00
76132;BME280;64877;50.994;13.650;2023-12-20T07:48:03;99187.22;;;7.04;100.00
76132;BME280;64877;50.994;13.650;2023-12-20T07:50:29;99187.53;;;6.99;100.00
76132;BME280;64877;50.994;13.650;2023-12-20T07:52:55;99196.69;;;6.96;100.00
76132;BME280;64877;50.994;13.650;2023-12-20T07:55:20;99198.28;;;6.86;100.00
76132;BME280;64877;50.994;13.650;2023-12-20T07:57:45;99197.09;;;6.90;100.00
76132;BME280;64877;50.994;13.650;2023-12-20T08:00:11;99201.72;;;6.88;100.00
76132;BME280;64877;50.994;13.650;2023-12-20T08:02:37;99195.63;;;6.86;100.00
76132;BME280;64877;50.994;13.650;2023-12-20T08:05:03;99200.53;;;6.92;100.00
76132;BME280;64877;50.994;13.650;2023-12-20T08:07:29;99197.97;;;7.04;100.00
76132;BME280;64877;50.994;13.650;2023-12-20T08:09:54;99196.66;;;7.09;99.38
76132;BME280;64877;50.994;13.650;2023-12-20T08:12:21;99196.66;;;7.22;96.44
76132;BME280;64877;50.994;13.650;2023-12-20T08:14:47;99195.56;;;7.37;97.27
76132;BME280;64877;50.994;13.650;2023-12-20T08:17:12;99205.44;;;7.37;94.99
76132;BME280;64877;50.994;13.650;2023-12-20T08:19:37;99208.22;;;7.48;94.81
76132;BME280;64877;50.994;13.650;2023-12-20T08:22:03;99207.44;;;7.59;92.94
76132;BME280;64877;50.994;13.650;2023-12-20T08:24:29;99196.16;;;7.54;92.78
76132;BME280;64877;50.994;13.650;2023-12-20T08:26:55;99202.44;;;7.41;93.89
76132;BME280;64877;50.994;13.650;2023-12-20T08:29:20;99195.09;;;7.43;93.99
76132;BME280;64877;50.994;13.650;2023-12-20T08:31:46;99201.53;;;7.54;93.39
76132;BME280;64877;50.994;13.650;2023-12-20T08:34:11;99195.03;;;7.69;92.02
76132;BME280;64877;50.994;13.650;2023-12-20T08:36:39;99187.34;;;7.88;90.61
76132;BME280;64877;50.994;13.650;2023-12-20T08:39:04;99176.28;;;8.28;87.43
76132;BME280;64877;50.994;13.650;2023-12-20T08:41:32;99177.31;;;8.38;86.11
76132;BME280;64877;50.994;13.650;2023-12-20T08:43:58;99185.34;;;8.62;85.57
76132;BME280;64877;50.994;13.650;2023-12-20T08:46:23;99199.88;;;8.60;84.58
76132;BME280;64877;50.994;13.650;2023-12-20T08:48:48;99199.69;;;8.74;83.35
76132;BME280;64877;50.994;13.650;2023-12-20T08:51:14;99194.34;;;8.85;81.48
76132;BME280;64877;50.994;13.650;2023-12-20T08:53:39;99198.34;;;8.79;79.74
76132;BME280;64877;50.994;13.650;2023-12-20T08:56:05;99198.25;;;8.81;78.39
76132;BME280;64877;50.994;13.650;2023-12-20T08:58:30;99198.81;;;8.73;77.29
76132;BME280;64877;50.994;13.650;2023-12-20T09:00:56;99210.69;;;8.71;77.52
76132;BME280;64877;50.994;13.650;2023-12-20T09:03:22;99202.72;;;8.69;78.30
76132;BME280;64877;50.994;13.650;2023-12-20T09:05:48;99209.25;;;8.78;77.59
76132;BME280;64877;50.994;13.650;2023-12-20T09:08:13;99210.22;;;8.77;77.01
76132;BME280;64877;50.994;13.650;2023-12-20T09:10:39;99198.88;;;8.96;76.42
76132;BME280;64877;50.994;13.650;2023-12-20T09:13:04;99193.59;;;8.83;76.97
76132;BME280;64877;50.994;13.650;2023-12-20T09:15:30;99190.06;;;9.27;74.59
76132;BME280;64877;50.994;13.650;2023-12-20T09:17:56;99193.88;;;9.47;74.32
76132;BME280;64877;50.994;13.650;2023-12-20T09:20:21;99198.78;;;9.42;73.22
76132;BME280;64877;50.994;13.650;2023-12-20T09:22:49;99207.00;;;9.41;74.86
76132;BME280;64877;50.994;13.650;2023-12-20T09:25:14;99202.91;;;9.69;73.83
76132;BME280;64877;50.994;13.650;2023-12-20T09:27:41;99201.53;;;9.74;73.61
76132;BME280;64877;50.994;13.650;2023-12-20T09:30:07;99195.09;;;9.66;73.21
76132;BME280;64877;50.994;13.650;2023-12-20T09:32:32;99189.78;;;9.87;72.84
76132;BME280;64877;50.994;13.650;2023-12-20T09:34:58;99187.97;;;9.76;74.16
76132;BME280;64877;50.994;13.650;2023-12-20T09:37:26;99186.63;;;9.70;73.62
76132;BME280;64877;50.994;13.650;2023-12-20T09:39:51;99195.19;;;9.64;74.15
76132;BME280;64877;50.994;13.650;2023-12-20T09:42:33;99189.59;;;9.45;74.56
76132;BME280;64877;50.994;13.650;2023-12-20T09:45:02;99190.69;;;9.42;74.55
76132;BME280;64877;50.994;13.650;2023-12-20T09:47:28;99188.34;;;8.93;75.79
76132;BME280;64877;50.994;13.650;2023-12-20T09:49:54;99168.53;;;9.16;75.87
76132;BME280;64877;50.994;13.650;2023-12-20T09:52:22;99163.03;;;9.06;75.90
76132;BME280;64877;50.994;13.650;2023-12-20T09:54:49;99178.06;;;9.09;74.53
76132;BME280;64877;50.994;13.650;2023-12-20T09:57:17;99176.00;;;8.90;75.32
76132;BME280;64877;50.994;13.650;2023-12-20T09:59:42;99173.75;;;8.84;75.96
76132;BME280;64877;50.994;13.650;2023-12-20T10:02:12;99171.53;;;8.67;76.16
76132;BME280;64877;50.994;13.650;2023-12-20T10:04:44;99177.53;;;8.70;76.35
76132;BME280;64877;50.994;13.650;2023-12-20T10:07:11;99166.78;;;8.82;75.33
76132;BME280;64877;50.994;13.650;2023-12-20T10:09:37;99163.38;;;8.91;74.51
76132;BME280;64877;50.994;13.650;2023-12-20T10:12:03;99145.97;;;8.95;74.07
76132;BME280;64877;50.994;13.650;2023-12-20T10:14:30;99155.13;;;8.70;74.74
76132;BME280;64877;50.994;13.650;2023-12-20T10:17:05;99161.47;;;8.58;74.19
76132;BME280;64877;50.994;13.650;2023-12-20T10:19:31;99146.56;;;8.65;75.18
76132;BME280;64877;50.994;13.650;2023-12-20T10:21:59;99136.78;;;8.75;75.58
76132;BME280;64877;50.994;13.650;2023-12-20T10:24:24;99153.69;;;8.66;74.60
76132;BME280;64877;50.994;13.650;2023-12-20T10:27:04;99145.34;;;8.80;74.67
76132;BME280;64877;50.994;13.650;2023-12-20T10:29:34;99138.53;;;9.21;73.02
76132;BME280;64877;50.994;13.650;2023-12-20T10:31:59;99140.41;;;9.64;70.39
76132;BME280;64877;50.994;13.650;2023-12-20T10:34:25;99127.00;;;9.30;70.05
76132;BME280;64877;50.994;13.650;2023-12-20T10:36:52;99127.72;;;9.43;70.63
76132;BME280;64877;50.994;13.650;2023-12-20T10:39:18;99126.91;;;9.20;71.05
76132;BME280;64877;50.994;13.650;2023-12-20T10:41:45;99132.41;;;9.07;71.98
76132;BME280;64877;50.994;13.650;2023-12-20T10:44:12;99130.81;;;8.94;71.55
76132;BME280;64877;50.994;13.650;2023-12-20T10:46:39;99122.34;;;8.98;72.15
76132;BME280;64877;50.994;13.650;2023-12-20T10:49:05;99107.66;;;8.80;72.36
76132;BME280;64877;50.994;13.650;2023-12-20T10:51:32;99111.31;;;8.57;72.17
76132;BME280;64877;50.994;13.650;2023-12-20T10:53:59;99119.09;;;8.37;72.67
76132;BME280;64877;50.994;13.650;2023-12-20T10:56:25;99102.97;;;8.48;73.38
76132;BME280;64877;50.994;13.650;2023-12-20T10:58:56;99094.19;;;8.46;73.08
76132;BME280;64877;50.994;13.650;2023-12-20T11:01:23;99095.75;;;8.38;72.88
76132;BME280;64877;50.994;13.650;2023-12-20T11:03:50;99093.47;;;8.56;71.26
76132;BME280;64877;50.994;13.650;2023-12-20T11:08:57;99075.00;;;8.51;71.22
76132;BME280;64877;50.994;13.650;2023-12-20T11:14:15;99079.63;;;8.60;70.21
76132;BME280;64877;50.994;13.650;2023-12-20T11:16:42;99081.50;;;8.71;69.91
76132;BME280;64877;50.994;13.650;2023-12-20T11:19:07;99079.75;;;8.59;69.24
76132;BME280;64877;50.994;13.650;2023-12-20T11:21:33;99073.66;;;8.57;69.40
76132;BME280;64877;50.994;13.650;2023-12-20T11:23:59;99058.84;;;8.51;70.03
76132;BME280;64877;50.994;13.650;2023-12-20T11:26:28;99071.31;;;8.52;69.65
76132;BME280;64877;50.994;13.650;2023-12-20T11:29:22;99077.91;;;8.59;68.68
76132;BME280;64877;50.994;13.650;2023-12-20T11:31:40;99077.06;;;8.59;69.65
76132;BME280;64877;50.994;13.650;2023-12-20T11:34:17;99068.97;;;8.70;68.97
76132;BME280;64877;50.994;13.650;2023-12-20T11:36:42;99071.44;;;8.50;68.83
76132;BME280;64877;50.994;13.650;2023-12-20T11:39:07;99071.81;;;8.46;69.67
76132;BME280;64877;50.994;13.650;2023-12-20T11:41:36;99073.88;;;8.42;69.49
76132;BME280;64877;50.994;13.650;2023-12-20T11:44:04;99071.84;;;8.33;69.45
76132;BME280;64877;50.994;13.650;2023-12-20T11:46:31;99058.94;;;8.38;69.43
76132;BME280;64877;50.994;13.650;2023-12-20T11:48:56;99054.38;;;8.27;69.37
76132;BME280;64877;50.994;13.650;2023-12-20T11:51:22;99068.31;;;8.21;70.61
76132;BME280;64877;50.994;13.650;2023-12-20T11:53:51;99057.56;;;8.33;70.51
76132;BME280;64877;50.994;13.650;2023-12-20T11:56:17;99068.00;;;8.37;70.57
76132;BME280;64877;50.994;13.650;2023-12-20T11:58:42;99054.94;;;8.20;69.41
76132;BME280;64877;50.994;13.650;2023-12-20T12:01:08;99061.94;;;8.34;68.82
76132;BME280;64877;50.994;13.650;2023-12-20T12:03:33;99051.06;;;8.24;69.42
76132;BME280;64877;50.994;13.650;2023-12-20T12:05:59;99040.78;;;8.29;69.52
76132;BME280;64877;50.994;13.650;2023-12-20T12:08:26;99041.28;;;8.34;69.96
76132;BME280;64877;50.994;13.650;2023-12-20T12:10:51;99033.47;;;8.31;69.46
76132;BME280;64877;50.994;13.650;2023-12-20T12:13:17;99044.69;;;8.25;70.65
76132;BME280;64877;50.994;13.650;2023-12-20T12:15:42;99046.72;;;8.10;69.98
76132;BME280;64877;50.994;13.650;2023-12-20T12:18:09;99031.72;;;8.08;70.96
76132;BME280;64877;50.994;13.650;2023-12-20T12:20:35;99019.97;;;8.09;70.33
76132;BME280;64877;50.994;13.650;2023-12-20T12:23:04;99025.25;;;8.21;70.42
76132;BME280;64877;50.994;13.650;2023-12-20T12:25:32;99027.47;;;8.16;70.80
76132;BME280;64877;50.994;13.650;2023-12-20T12:27:58;99015.84;;;8.16;70.64
76132;BME280;64877;50.994;13.650;2023-12-20T12:30:24;99014.59;;;8.20;70.73
76132;BME280;64877;50.994;13.650;2023-12-20T12:32:51;99008.88;;;8.24;70.28
76132;BME280;64877;50.994;13.650;2023-12-20T12:35:17;99013.66;;;8.32;69.61
76132;BME280;64877;50.994;13.650;2023-12-20T12:37:43;99003.25;;;8.16;69.67
76132;BME280;64877;50.994;13.650;2023-12-20T12:40:13;99001.41;;;8.17;69.60
76132;BME280;64877;50.994;13.650;2023-12-20T12:42:40;99000.09;;;8.45;68.65
76132;BME280;64877;50.994;13.650;2023-12-20T12:45:06;98992.41;;;8.40;69.61
76132;BME280;64877;50.994;13.650;2023-12-20T12:47:32;98987.28;;;8.37;68.27
76132;BME280;64877;50.994;13.650;2023-12-20T12:49:58;98989.69;;;8.29;68.60
76132;BME280;64877;50.994;13.650;2023-12-20T12:52:23;98989.47;;;8.43;69.03
76132;BME280;64877;50.994;13.650;2023-12-20T12:54:49;98992.75;;;8.36;68.84